Time;durP1;ratioP1;P1;durP2;ratioP2;P2;SDS_P1;SDS_P2;PMS_P1;PMS_P2;Temp;Humidity;BMP_temperature;BMP_pressure;BME280_temperature;BME280_humidity;BME280_pressure;Samples;Min_cycle;Max_cycle;Signal;HPM_P1;HPM_P2
2022/06/07 00:01:27;;;;;;;0.40;0.40;;;;;;;11.23;76.14;99259.88;4825754;29;20055;-88
2022/06/07 00:03:56;;;;;;;0.40;0.40;;;;;;;11.14;75.96;99244.28;4826720;29;20103;-88
2022/06/07 00:06:27;;;;;;;0.40;0.40;;;;;;;11.11;76.16;99242.09;4826169;29;20065;-89
2022/06/07 00:08:59;;;;;;;0.40;0.40;;;;;;;11.25;76.30;99259.63;4814670;29;20061;-88
2022/06/07 00:11:26;;;;;;;0.40;0.40;;;;;;;11.19;76.37;99256.03;4826869;29;20062;-88
2022/06/07 00:13:54;;;;;;;0.40;0.40;;;;;;;11.26;76.63;99253.97;4827080;29;20050;-88
2022/06/07 00:16:21;;;;;;;0.40;0.40;;;;;;;11.33;76.44;99255.72;4825371;29;20055;-89
2022/06/07 00:18:48;;;;;;;0.40;0.40;;;;;;;11.29;76.56;99252.66;4824887;29;20535;-88
2022/06/07 00:21:18;;;;;;;0.30;0.30;;;;;;;11.21;76.75;99261.19;4825672;29;20054;-89
2022/06/07 00:23:45;;;;;;;0.32;0.32;;;;;;;11.12;77.24;99255.34;4825639;29;20050;-88
2022/06/07 00:26:13;;;;;;;0.40;0.40;;;;;;;11.12;77.79;99263.47;4825623;29;20122;-87
2022/06/07 00:28:45;;;;;;;0.40;0.40;;;;;;;11.10;78.24;99265.56;4825060;29;20055;-88
2022/06/07 00:31:13;;;;;;;0.40;0.40;;;;;;;11.08;78.67;99259.59;4841934;29;20119;-88
2022/06/07 00:33:40;;;;;;;0.40;0.40;;;;;;;10.95;79.03;99259.88;4830851;29;20455;-90
2022/06/07 00:36:08;;;;;;;0.40;0.40;;;;;;;10.86;79.49;99259.44;4810636;29;20054;-89
2022/06/07 00:38:35;;;;;;;0.40;0.40;;;;;;;10.84;79.81;99256.19;4808502;29;20058;-89
2022/06/07 00:41:04;;;;;;;0.40;0.40;;;;;;;10.74;80.17;99259.50;4839511;29;20082;-90
2022/06/07 00:43:31;;;;;;;0.40;0.40;;;;;;;10.65;80.63;99263.59;4808944;29;20070;-88
2022/06/07 00:45:58;;;;;;;0.40;0.40;;;;;;;10.55;80.73;99266.09;4824489;29;20081;-90
2022/06/07 00:48:26;;;;;;;0.40;0.40;;;;;;;10.44;81.34;99262.38;4824849;29;20063;-89
2022/06/07 00:50:58;;;;;;;0.40;0.40;;;;;;;10.31;82.10;99258.06;4823665;29;20050;-88
2022/06/07 00:53:28;;;;;;;0.40;0.40;;;;;;;10.29;82.20;99264.75;4822949;29;20088;-87
2022/06/07 00:56:05;;;;;;;0.40;0.40;;;;;;;10.25;82.38;99264.34;4838558;29;20141;-86
2022/06/07 00:58:35;;;;;;;0.40;0.40;;;;;;;10.16;82.50;99257.69;4837145;29;20442;-85
2022/06/07 01:01:05;;;;;;;0.30;0.30;;;;;;;10.26;82.50;99260.59;4837660;29;20050;-86
2022/06/07 01:03:35;;;;;;;0.40;0.40;;;;;;;10.31;82.29;99254.53;4821736;29;20046;-87
2022/06/07 01:11:41;;;;;;;0.40;0.40;;;;;;;10.55;80.04;99239.94;4833009;29;20050;-89
2022/06/07 01:14:08;;;;;;;0.40;0.40;;;;;;;10.56;79.90;99252.38;4846943;29;20053;-89
2022/06/07 01:16:35;;;;;;;0.40;0.40;;;;;;;10.46;80.29;99254.03;4849166;29;20542;-89
2022/06/07 01:19:02;;;;;;;0.40;0.40;;;;;;;10.49;80.15;99258.97;4846399;29;20637;-87
2022/06/07 01:21:41;;;;;;;0.40;0.40;;;;;;;10.49;79.56;99265.19;4871800;29;20078;-90
2022/06/07 01:24:09;;;;;;;0.40;0.40;;;;;;;10.56;78.76;99259.66;4865945;29;20137;-88
2022/06/07 01:26:59;;;;;;;0.40;0.40;;;;;;;10.56;78.05;99256.97;4865774;29;20034;-87
2022/06/07 01:29:26;;;;;;;0.50;0.50;;;;;;;10.60;77.89;99258.09;4865719;29;20038;-88
2022/06/07 01:31:53;;;;;;;0.40;0.40;;;;;;;10.54;77.38;99242.88;4850890;29;20041;-88
2022/06/07 01:34:24;;;;;;;0.40;0.40;;;;;;;10.59;77.51;99261.88;4865526;29;20042;-88
2022/06/07 01:36:54;;;;;;;0.40;0.40;;;;;;;10.56;77.01;99263.19;4849388;29;20090;-88
2022/06/07 01:42:10;;;;;;;0.47;0.47;;;;;;;10.72;75.81;99267.00;4834561;29;20050;-88
2022/06/07 01:44:40;;;;;;;0.40;0.40;;;;;;;10.77;75.38;99261.69;4843991;29;20054;-89
2022/06/07 01:47:11;;;;;;;0.40;0.40;;;;;;;10.81;74.91;99268.28;4853975;29;20094;-88
2022/06/07 01:50:12;;;;;;;0.40;0.40;;;;;;;10.82;74.37;99263.69;4841041;29;20050;-88
2022/06/07 01:52:40;;;;;;;0.40;0.40;;;;;;;10.81;73.60;99267.44;4844169;29;20050;-89
2022/06/07 01:55:18;;;;;;;0.50;0.50;;;;;;;10.79;72.99;99259.59;4835281;29;20058;-89
2022/06/07 01:58:07;;;;;;;0.40;0.40;;;;;;;10.82;73.16;99266.38;4845557;29;20058;-89
2022/06/07 02:00:35;;;;;;;0.50;0.50;;;;;;;10.78;72.94;99273.31;4848056;29;20103;-93
2022/06/07 02:03:03;;;;;;;0.40;0.40;;;;;;;10.82;72.38;99269.91;4835922;29;20061;-88
2022/06/07 02:05:30;;;;;;;0.40;0.40;;;;;;;10.91;71.98;99277.63;4864594;29;20030;-89
2022/06/07 02:07:59;;;;;;;0.40;0.40;;;;;;;10.89;72.55;99266.22;4849530;29;20105;-88
2022/06/07 02:10:32;;;;;;;0.40;0.40;;;;;;;10.90;71.64;99273.28;4865045;29;20111;-91
2022/06/07 02:13:05;;;;;;;0.40;0.40;;;;;;;10.95;70.74;99278.78;4865709;29;20110;-87
2022/06/07 02:15:33;;;;;;;0.40;0.40;;;;;;;10.99;70.65;99274.56;4864481;29;20050;-91
2022/06/07 02:18:01;;;;;;;0.40;0.40;;;;;;;10.98;70.37;99275.59;4864108;29;20038;-88
2022/06/07 02:20:40;;;;;;;0.40;0.40;;;;;;;11.03;69.78;99284.63;4846851;29;20046;-90
2022/06/07 02:23:08;;;;;;;0.40;0.40;;;;;;;11.01;69.58;99275.97;4840711;29;20049;-88
2022/06/07 02:25:43;;;;;;;0.40;0.40;;;;;;;11.11;69.68;99283.41;4840689;29;20617;-95
2022/06/07 02:28:11;;;;;;;0.40;0.40;;;;;;;11.10;69.42;99289.88;4843050;29;20065;-93
2022/06/07 02:30:41;;;;;;;0.40;0.40;;;;;;;11.03;69.02;99270.28;4826670;29;20102;-91
2022/06/07 02:33:09;;;;;;;0.40;0.40;;;;;;;11.17;68.44;99284.34;4826327;29;20109;-91
2022/06/07 02:35:39;;;;;;;0.50;0.50;;;;;;;11.13;67.54;99275.06;4806331;29;20530;-91
2022/06/07 02:38:07;;;;;;;0.40;0.40;;;;;;;11.17;68.14;99282.47;4807398;29;20472;-91
2022/06/07 02:40:40;;;;;;;0.40;0.40;;;;;;;11.24;67.57;99290.41;4837320;29;20464;-91
2022/06/07 02:43:07;;;;;;;0.40;0.40;;;;;;;11.24;66.77;99279.59;4807168;29;20557;-90
2022/06/07 02:45:35;;;;;;;0.50;0.50;;;;;;;11.27;66.87;99287.25;4837753;29;20165;-91
2022/06/07 02:48:02;;;;;;;0.40;0.40;;;;;;;11.35;65.50;99289.53;4821964;29;20506;-87
2022/06/07 02:50:31;;;;;;;0.45;0.45;;;;;;;11.37;65.41;99292.84;4836835;29;20093;-90
2022/06/07 02:52:59;;;;;;;0.40;0.40;;;;;;;11.37;65.55;99282.03;4823437;29;20061;-89
2022/06/07 02:55:30;;;;;;;0.50;0.50;;;;;;;11.52;65.03;99294.16;4821391;29;20086;-89
2022/06/07 02:58:05;;;;;;;0.40;0.40;;;;;;;11.54;64.20;99294.72;4792953;29;20057;-91
2022/06/07 03:00:33;;;;;;;0.50;0.50;;;;;;;11.55;64.01;99294.50;4828983;29;20064;-90
2022/06/07 03:03:01;;;;;;;0.40;0.40;;;;;;;11.58;63.80;99296.72;4846549;29;20118;-92
2022/06/07 03:05:30;;;;;;;0.40;0.40;;;;;;;11.68;63.24;99302.28;4821368;29;20050;-88
2022/06/07 03:08:02;;;;;;;0.40;0.40;;;;;;;11.75;63.13;99301.28;4837537;29;20058;-89
2022/06/07 03:10:30;;;;;;;0.40;0.40;;;;;;;11.82;63.69;99304.66;4836917;29;20429;-89
2022/06/07 03:13:01;;;;;;;0.50;0.50;;;;;;;11.82;63.11;99302.78;4824428;29;20145;-91
2022/06/07 03:15:29;;;;;;;0.40;0.40;;;;;;;11.86;61.95;99297.72;4807985;29;20054;-93
2022/06/07 03:18:00;;;;;;;0.40;0.40;;;;;;;11.97;61.63;99310.34;4837869;29;20055;-92
2022/06/07 03:20:34;;;;;;;0.50;0.50;;;;;;;11.92;61.23;99296.75;4809294;29;20058;-91
2022/06/07 03:23:03;;;;;;;0.40;0.40;;;;;;;11.96;60.68;99302.50;4839584;29;20112;-93
2022/06/07 03:25:31;;;;;;;0.40;0.40;;;;;;;11.96;60.72;99306.03;4853121;29;20534;-92
2022/06/07 03:28:03;;;;;;;0.43;0.43;;;;;;;11.93;60.06;99298.41;4847206;29;20510;-88
2022/06/07 03:30:31;;;;;;;0.40;0.40;;;;;;;11.95;60.10;99298.97;4841009;29;20065;-85
2022/06/07 03:33:00;;;;;;;0.40;0.40;;;;;;;12.04;59.81;99312.91;4843126;29;20046;-93
2022/06/07 03:35:30;;;;;;;0.40;0.40;;;;;;;12.02;59.84;99304.22;4827047;29;20158;-92
2022/06/07 03:38:00;;;;;;;0.50;0.50;;;;;;;12.11;59.51;99305.44;4792110;29;20098;-93
2022/06/07 03:40:47;;;;;;;0.40;0.40;;;;;;;12.11;59.61;99311.66;4795933;29;20530;-94
2022/06/07 03:43:23;;;;;;;0.50;0.50;;;;;;;12.13;59.08;99322.25;4808561;29;20046;-91
2022/06/07 03:45:50;;;;;;;0.47;0.47;;;;;;;12.19;59.07;99312.31;4809552;29;20083;-91
2022/06/07 03:48:18;;;;;;;0.40;0.40;;;;;;;12.34;59.95;99320.66;4824565;29;20061;-88
2022/06/07 03:50:48;;;;;;;0.50;0.50;;;;;;;12.36;58.26;99311.22;4824288;29;20058;-88
2022/06/07 03:53:23;;;;;;;0.40;0.40;;;;;;;12.37;57.50;99306.63;4809601;29;20146;-89
2022/06/07 03:55:55;;;;;;;0.40;0.40;;;;;;;12.50;57.73;99317.09;4822599;29;20058;-91
2022/06/07 03:58:28;;;;;;;0.50;0.50;;;;;;;12.45;57.56;99306.19;4809725;29;20905;-87
2022/06/07 04:00:59;;;;;;;0.40;0.40;;;;;;;12.58;57.20;99319.41;4821646;29;20122;-91
2022/06/07 04:03:43;;;;;;;0.40;0.40;;;;;;;12.65;57.43;99318.38;4806172;29;20054;-95
2022/06/07 04:06:23;;;;;;;0.40;0.40;;;;;;;12.58;57.11;99296.91;5258839;24;20052;31
2022/06/07 04:08:53;;;;;;;0.40;0.40;;;;;;;12.72;57.25;99316.31;4453971;29;10001581;-85
2022/06/07 04:11:22;;;;;;;0.40;0.40;;;;;;;12.86;57.68;99319.47;4786883;30;20056;-90
2022/06/07 04:13:58;;;;;;;0.50;0.50;;;;;;;12.93;57.15;99314.69;4790609;30;20131;-87
2022/06/07 04:16:44;;;;;;;0.40;0.40;;;;;;;13.08;57.30;99316.75;4783855;30;20127;-90
2022/06/07 04:19:18;;;;;;;0.47;0.47;;;;;;;13.20;56.62;99323.69;4785885;30;20056;-89
2022/06/07 04:21:47;;;;;;;0.50;0.50;;;;;;;13.20;56.69;99329.09;4786964;30;20112;-87
2022/06/07 04:24:27;;;;;;;0.40;0.40;;;;;;;13.18;56.34;99325.81;4756666;30;20054;-89
2022/06/07 04:26:54;;;;;;;0.40;0.40;;;;;;;13.30;56.86;99322.19;4785816;29;20158;-88
2022/06/07 04:29:22;;;;;;;0.40;0.40;;;;;;;13.39;56.11;99321.50;4786690;30;20085;-88
2022/06/07 04:31:52;;;;;;;0.50;0.50;;;;;;;13.40;55.76;99320.41;4785957;29;20052;-88
2022/06/07 04:34:19;;;;;;;0.40;0.40;;;;;;;13.35;55.20;99316.81;4770929;30;20155;-88
2022/06/07 04:36:48;;;;;;;0.40;0.40;;;;;;;13.34;55.30;99316.00;4786030;30;20079;-89
2022/06/07 04:39:24;;;;;;;0.40;0.40;;;;;;;13.39;55.50;99312.50;4785737;30;20066;-86
2022/06/07 04:42:06;;;;;;;0.40;0.40;;;;;;;13.64;55.57;99325.50;4769606;30;20056;-87
2022/06/07 04:44:51;;;;;;;0.40;0.40;;;;;;;13.75;55.83;99319.13;4767890;30;20389;-88
2022/06/07 04:47:26;;;;;;;0.43;0.43;;;;;;;13.87;55.50;99333.34;4782354;30;20159;-89
2022/06/07 04:49:54;;;;;;;0.40;0.40;;;;;;;13.83;54.32;99334.09;4782353;30;20108;-88
2022/06/07 04:52:21;;;;;;;0.40;0.40;;;;;;;13.81;54.99;99331.63;4767937;30;20395;-88
2022/06/07 04:54:53;;;;;;;0.40;0.40;;;;;;;13.97;54.61;99339.91;4783623;30;20079;-88
2022/06/07 04:57:22;;;;;;;0.40;0.40;;;;;;;14.10;53.87;99331.31;4766840;30;20055;-86
2022/06/07 04:59:51;;;;;;;0.40;0.40;;;;;;;14.04;53.54;99338.63;4782858;30;20059;-90
2022/06/07 05:02:29;;;;;;;0.40;0.40;;;;;;;14.06;53.41;99324.81;4768028;30;20109;-89
2022/06/07 05:05:03;;;;;;;0.43;0.43;;;;;;;14.10;52.57;99323.19;4762229;30;20060;-88
2022/06/07 05:07:30;;;;;;;0.40;0.40;;;;;;;14.10;52.38;99325.91;4756947;30;20067;-89
2022/06/07 05:10:13;;;;;;;0.40;0.40;;;;;;;14.18;52.19;99332.75;4780473;30;20055;-90
2022/06/07 05:12:45;;;;;;;0.40;0.40;;;;;;;14.28;51.87;99340.97;4767034;30;20138;-91
2022/06/07 05:15:19;;;;;;;0.40;0.40;;;;;;;14.35;51.09;99335.31;4767916;30;20492;-87
2022/06/07 05:17:57;;;;;;;0.40;0.40;;;;;;;14.26;49.97;99327.66;4780141;29;20116;-87
2022/06/07 05:20:34;;;;;;;0.40;0.40;;;;;;;14.41;49.95;99334.28;4766743;30;20087;-88
2022/06/07 05:23:07;;;;;;;0.40;0.40;;;;;;;14.39;48.54;99328.28;4781532;30;20095;-88
2022/06/07 05:25:38;;;;;;;0.40;0.40;;;;;;;14.46;48.10;99326.16;4759208;30;20055;-84
2022/06/07 05:28:09;;;;;;;0.30;0.30;;;;;;;14.56;47.42;99328.97;4785414;30;20062;-86
2022/06/07 05:30:39;;;;;;;0.43;0.43;;;;;;;14.67;47.86;99332.56;4759277;30;20055;-87
2022/06/07 05:33:29;;;;;;;0.40;0.40;;;;;;;14.69;47.82;99327.69;4767232;30;20051;-84
2022/06/07 05:35:59;;;;;;;0.50;0.50;;;;;;;14.87;47.19;99346.25;4776581;30;20756;-85
2022/06/07 05:38:26;;;;;;;0.40;0.40;;;;;;;14.93;46.81;99334.31;4777509;29;20055;-87
2022/06/07 05:41:03;;;;;;;0.40;0.40;;;;;;;15.05;46.90;99331.38;4780027;30;20055;-85
2022/06/07 05:43:32;;;;;;;0.40;0.40;;;;;;;15.20;46.78;99335.25;4778251;29;20524;-85
2022/06/07 05:45:59;;;;;;;0.40;0.40;;;;;;;15.27;46.71;99333.91;4778851;29;20051;-83
2022/06/07 05:48:39;;;;;;;0.40;0.40;;;;;;;15.23;45.83;99334.72;4772360;30;20055;-85
2022/06/07 05:51:11;;;;;;;0.30;0.30;;;;;;;15.19;45.16;99326.25;4764359;30;20062;-84
2022/06/07 05:53:41;;;;;;;0.40;0.40;;;;;;;15.20;44.22;99327.09;4764800;30;20080;-84
2022/06/07 05:56:13;;;;;;;0.40;0.40;;;;;;;15.14;44.49;99332.50;4781120;30;20085;-86
2022/06/07 05:59:11;;;;;;;0.40;0.40;;;;;;;15.13;42.96;99325.41;4776234;30;20109;-85
2022/06/07 06:01:38;;;;;;;0.40;0.40;;;;;;;15.29;43.97;99339.06;4779818;30;20635;-86
2022/06/07 06:04:08;;;;;;;0.40;0.40;;;;;;;15.37;42.01;99330.41;4778516;30;20056;-85
2022/06/07 06:06:41;;;;;;;0.40;0.40;;;;;;;15.45;42.04;99335.31;4739474;30;20125;-85
2022/06/07 06:11:58;;;;;;;0.40;0.40;;;;;;;15.99;40.49;99339.50;4785463;30;20066;-85
2022/06/07 06:14:38;;;;;;;0.40;0.40;;;;;;;15.96;40.20;99334.59;4792956;30;20473;-85
2022/06/07 06:17:15;;;;;;;0.40;0.40;;;;;;;16.07;39.92;99343.56;4791107;30;20119;-85
2022/06/07 06:19:53;;;;;;;0.40;0.40;;;;;;;16.31;40.95;99328.31;4790567;30;20073;-85
2022/06/07 06:22:22;;;;;;;0.40;0.40;;;;;;;16.35;39.33;99328.56;4789307;30;20074;-86
2022/06/07 06:24:57;;;;;;;0.40;0.40;;;;;;;16.52;39.34;99333.72;4792227;30;20518;-89
2022/06/07 06:27:25;;;;;;;0.30;0.30;;;;;;;16.62;39.25;99329.06;4783400;30;20082;-86
2022/06/07 06:29:58;;;;;;;0.40;0.40;;;;;;;16.53;38.28;99319.81;4785351;29;20056;-88
2022/06/07 06:32:26;;;;;;;0.40;0.40;;;;;;;16.72;38.16;99332.88;4774174;30;20067;-85
2022/06/07 06:34:54;;;;;;;0.40;0.40;;;;;;;16.85;37.64;99327.66;4782106;30;20062;-87
2022/06/07 06:37:27;;;;;;;0.40;0.40;;;;;;;16.80;38.01;99322.25;4781781;30;20051;-87
2022/06/07 06:39:57;;;;;;;0.35;0.35;;;;;;;16.76;38.16;99332.06;4781424;30;20093;-86
2022/06/07 06:42:24;;;;;;;0.40;0.40;;;;;;;16.77;39.99;99309.13;4780024;30;20056;-86
2022/06/07 06:45:14;;;;;;;0.40;0.40;;;;;;;17.05;39.65;99312.34;4783023;30;20512;-85
2022/06/07 06:47:44;;;;;;;0.40;0.40;;;;;;;16.94;38.15;99314.31;4782175;30;20055;-88
2022/06/07 06:50:13;;;;;;;0.40;0.40;;;;;;;16.96;38.43;99311.28;4783679;30;20083;-86
2022/06/07 06:52:42;;;;;;;0.40;0.40;;;;;;;16.84;37.02;99300.72;4783046;30;20059;-85
2022/06/07 06:55:09;;;;;;;0.38;0.38;;;;;;;16.87;36.72;99314.59;4768998;30;20090;-87
2022/06/07 06:57:37;;;;;;;0.40;0.40;;;;;;;16.83;37.05;99312.69;4771561;30;20052;-86
2022/06/07 07:00:08;;;;;;;0.40;0.40;;;;;;;16.90;36.84;99302.31;4771257;30;20052;-85
2022/06/07 07:02:39;;;;;;;0.40;0.40;;;;;;;16.98;36.90;99307.19;4768923;30;20529;-87
2022/06/07 07:05:13;;;;;;;0.40;0.40;;;;;;;16.98;36.97;99307.19;4785161;30;20078;-85
2022/06/07 07:07:47;;;;;;;0.40;0.40;;;;;;;17.09;37.28;99307.94;4785715;30;20769;-84
2022/06/07 07:10:22;;;;;;;0.40;0.40;;;;;;;17.07;36.35;99313.69;4754004;30;20071;-86
2022/06/07 07:12:50;;;;;;;0.40;0.40;;;;;;;17.14;37.83;99304.38;4769511;30;20113;-85
2022/06/07 07:15:26;;;;;;;0.40;0.40;;;;;;;17.32;36.58;99301.03;4768025;30;20405;-85
2022/06/07 07:18:01;;;;;;;0.40;0.40;;;;;;;17.37;37.24;99300.16;4782925;30;20428;-88
2022/06/07 07:20:30;;;;;;;0.30;0.30;;;;;;;17.33;37.23;99298.00;4754965;30;20137;-86
2022/06/07 07:22:59;;;;;;;0.35;0.35;;;;;;;17.28;36.45;99300.75;4768874;30;20052;-86
2022/06/07 07:25:26;;;;;;;0.40;0.40;;;;;;;17.19;37.09;99307.06;4771882;30;20047;-86
2022/06/07 07:27:54;;;;;;;0.40;0.40;;;;;;;17.08;37.15;99292.69;4784285;30;20607;-85
2022/06/07 07:30:25;;;;;;;0.40;0.40;;;;;;;17.06;37.20;99297.59;4785505;30;20428;-86
2022/06/07 07:32:53;;;;;;;0.40;0.40;;;;;;;16.99;36.84;99295.19;4789456;30;20060;-86
2022/06/07 07:35:24;;;;;;;0.40;0.40;;;;;;;16.98;36.70;99293.53;4771726;30;20058;-87
2022/06/07 07:37:59;;;;;;;0.40;0.40;;;;;;;17.20;36.69;99295.91;4782898;29;20055;-87
2022/06/07 07:40:28;;;;;;;0.35;0.35;;;;;;;17.31;36.08;99292.00;4781460;30;20063;-88
2022/06/07 07:42:58;;;;;;;0.40;0.40;;;;;;;17.47;35.68;99278.25;4785453;30;20077;-87
2022/06/07 07:45:30;;;;;;;0.30;0.30;;;;;;;17.39;35.66;99284.31;4786930;30;20116;-86
2022/06/07 07:48:02;;;;;;;0.50;0.50;;;;;;;17.46;35.00;99273.91;4785645;30;20079;-86
2022/06/07 07:50:37;;;;;;;0.50;0.50;;;;;;;17.58;33.72;99277.13;4785799;30;20439;-87
2022/06/07 07:53:20;;;;;;;0.50;0.50;;;;;;;17.64;33.42;99284.16;4785775;30;20108;-85
2022/06/07 07:55:50;;;;;;;0.50;0.50;;;;;;;17.84;33.48;99283.22;4785298;30;20086;-86
2022/06/07 07:58:23;;;;;;;0.50;0.50;;;;;;;17.92;33.19;99281.78;4789083;30;20055;-85
2022/06/07 08:00:52;;;;;;;0.50;0.50;;;;;;;18.30;33.10;99296.44;4786758;30;20070;-86
2022/06/07 08:03:23;;;;;;;0.50;0.50;;;;;;;18.39;31.97;99288.44;4779562;29;20074;-87
2022/06/07 08:09:26;;;;;;;0.50;0.50;;;;;;;18.42;29.90;99276.94;5126898;24;20070;-86
2022/06/07 08:11:54;;;;;;;0.50;0.50;;;;;;;18.25;31.02;99284.75;4844460;29;20062;-86
2022/06/07 08:14:23;;;;;;;0.50;0.50;;;;;;;18.46;32.10;99277.16;4843070;29;20054;-86
2022/06/07 08:16:50;;;;;;;0.50;0.50;;;;;;;18.99;30.78;99267.00;4842344;29;20494;-86
2022/06/07 08:19:18;;;;;;;0.50;0.50;;;;;;;19.39;29.73;99273.00;4844476;29;20057;-85
2022/06/07 08:21:46;;;;;;;0.50;0.50;;;;;;;19.21;29.96;99266.41;4843856;29;20530;-85
2022/06/07 08:24:13;;;;;;;0.60;0.60;;;;;;;19.55;30.69;99276.34;4812338;29;20050;-84
2022/06/07 08:26:40;;;;;;;0.50;0.50;;;;;;;19.61;29.66;99263.38;4842846;29;20077;-85
2022/06/07 08:29:09;;;;;;;0.50;0.50;;;;;;;19.80;30.53;99255.97;4842904;29;20061;-86
2022/06/07 08:31:36;;;;;;;0.50;0.50;;;;;;;20.34;29.82;99259.13;4844191;29;20065;-86
2022/06/07 08:40:28;;;;;;;0.50;0.50;;;;;;;21.01;26.88;99266.88;5147411;23;20066;-86
2022/06/07 08:42:58;;;;;;;0.50;0.50;;;;;;;20.82;26.05;99264.25;4842087;29;20050;-85
2022/06/07 08:45:32;;;;;;;0.50;0.50;;;;;;;20.64;25.84;99268.72;4841842;29;20140;-85
2022/06/07 08:48:16;;;;;;;0.50;0.50;;;;;;;20.39;26.32;99260.97;4841976;29;20049;-87
2022/06/07 08:50:48;;;;;;;0.60;0.60;;;;;;;20.18;26.60;99272.31;4842134;29;20118;-86
2022/06/07 08:53:27;;;;;;;0.60;0.60;;;;;;;20.52;25.72;99266.47;4842257;29;20054;-85
2022/06/07 08:55:58;;;;;;;0.50;0.50;;;;;;;20.66;24.35;99250.06;4842553;29;20062;-86
2022/06/07 08:58:29;;;;;;;0.55;0.55;;;;;;;20.74;24.72;99262.25;4842567;29;20077;-86
2022/06/07 09:00:59;;;;;;;0.60;0.60;;;;;;;20.69;24.69;99254.91;4842680;29;20140;-86
2022/06/07 09:03:52;;;;;;;0.60;0.60;;;;;;;20.71;25.24;99252.69;4842384;29;20057;-85
2022/06/07 09:06:23;;;;;;;0.60;0.60;;;;;;;21.24;25.38;99250.44;4843492;29;20514;-84
2022/06/07 09:08:53;;;;;;;0.60;0.60;;;;;;;21.45;25.25;99248.91;4842998;29;20046;-86
2022/06/07 09:14:32;;;;;;;0.68;0.68;;;;;;;21.61;26.53;99230.94;4842416;29;20053;-87
2022/06/07 09:17:03;;;;;;;0.60;0.60;;;;;;;21.66;25.22;99226.44;4843349;29;20064;-87
2022/06/07 09:19:32;;;;;;;0.60;0.60;;;;;;;21.60;25.59;99234.00;4841000;29;20054;-87
2022/06/07 09:22:03;;;;;;;0.60;0.60;;;;;;;21.83;24.89;99232.88;4842949;29;20077;-86
2022/06/07 09:24:40;;;;;;;0.60;0.60;;;;;;;22.00;24.70;99223.91;4846620;29;20095;-86
2022/06/07 09:27:16;;;;;;;0.60;0.60;;;;;;;22.42;24.20;99227.19;4844990;29;20475;-86
2022/06/07 09:29:54;;;;;;;0.60;0.60;;;;;;;22.60;24.28;99221.75;4846396;29;20053;-86
2022/06/07 09:32:24;;;;;;;0.60;0.60;;;;;;;23.34;23.89;99224.47;4846437;29;20157;-86
2022/06/07 09:35:08;;;;;;;0.60;0.60;;;;;;;23.85;24.16;99227.56;4846143;29;20136;-85
2022/06/07 09:37:54;;;;;;;;;;;;;;;24.46;23.02;99227.41;4846693;29;20060;-87
2022/06/07 09:40:53;;;;;;;0.60;0.60;;;;;;;24.60;23.41;99221.63;4846322;29;19928;-85
2022/06/07 09:43:26;;;;;;;0.55;0.55;;;;;;;24.75;22.09;99212.00;4843163;29;20222;-87
2022/06/07 09:45:55;;;;;;;0.60;0.60;;;;;;;24.58;22.84;99216.44;4845557;29;20062;-87
2022/06/07 09:48:32;;;;;;;0.50;0.50;;;;;;;24.96;22.42;99220.28;4815356;29;20411;-87
2022/06/07 09:51:01;;;;;;;0.50;0.50;;;;;;;25.13;23.30;99224.88;4827301;29;20054;-88
2022/06/07 09:53:40;;;;;;;0.50;0.50;;;;;;;25.31;19.89;99209.81;4841819;29;20144;-86
2022/06/07 09:56:14;;;;;;;0.50;0.50;;;;;;;24.71;20.11;99222.06;4841974;29;20062;-85
2022/06/07 09:58:41;;;;;;;0.50;0.50;;;;;;;24.74;21.86;99211.19;4846643;29;20050;-86
2022/06/07 10:01:25;;;;;;;0.60;0.60;;;;;;;24.77;20.53;99223.50;4833623;29;20333;-87
2022/06/07 10:04:14;;;;;;;0.60;0.60;;;;;;;24.75;21.37;99217.50;4811716;29;20098;-87
2022/06/07 10:06:54;;;;;;;0.55;0.55;;;;;;;24.79;20.65;99197.19;4842442;29;20510;-87
2022/06/07 10:09:47;;;;;;;0.50;0.50;;;;;;;25.35;20.35;99210.78;4844286;29;20050;-87
2022/06/07 10:12:32;;;;;;;0.50;0.50;;;;;;;25.55;20.74;99202.78;4837883;29;20529;-88
2022/06/07 10:15:28;;;;;;;0.50;0.50;;;;;;;26.50;19.33;99195.41;4837423;29;20648;-84
2022/06/07 10:18:32;;;;;;;0.60;0.60;;;;;;;25.74;19.48;99192.03;4834652;29;20058;-87
2022/06/07 10:21:23;;;;;;;0.50;0.50;;;;;;;26.08;20.05;99195.59;4849411;29;20058;-86
2022/06/07 10:23:56;;;;;;;0.60;0.60;;;;;;;26.63;20.22;99183.19;4843955;29;20049;-86
2022/06/07 10:27:17;;;;;;;0.50;0.50;;;;;;;27.09;19.83;99196.84;4853046;29;20057;-83
2022/06/07 10:29:50;;;;;;;0.50;0.50;;;;;;;26.30;18.84;99191.59;4839427;29;20077;-84
2022/06/07 10:32:37;;;;;;;0.50;0.50;;;;;;;25.92;19.55;99185.19;4814270;29;20443;-87
2022/06/07 10:35:29;;;;;;;0.50;0.50;;;;;;;26.05;19.67;99180.50;4812029;29;20053;-85
2022/06/07 10:38:06;;;;;;;0.50;0.50;;;;;;;26.32;18.56;99187.31;4821749;29;20055;-88
2022/06/07 10:41:04;;;;;;;0.50;0.50;;;;;;;26.44;18.61;99183.75;4796533;29;20066;-85
2022/06/07 10:44:18;;;;;;;0.60;0.60;;;;;;;27.16;18.46;99188.75;4788405;30;20052;-87
2022/06/07 10:46:46;;;;;;;0.50;0.50;;;;;;;27.19;18.51;99174.22;4778007;29;20170;-86
2022/06/07 10:49:50;;;;;;;0.50;0.50;;;;;;;27.80;18.62;99184.22;4784192;29;20135;-86
2022/06/07 10:52:25;;;;;;;0.50;0.50;;;;;;;27.48;17.49;99186.13;4806835;29;20079;-86
2022/06/07 10:55:10;;;;;;;0.50;0.50;;;;;;;26.76;18.30;99176.50;4801682;29;20066;-86
2022/06/07 10:57:48;;;;;;;0.52;0.52;;;;;;;27.10;17.34;99177.13;4793115;29;20059;-85
2022/06/07 11:00:20;;;;;;;0.50;0.50;;;;;;;27.02;16.93;99183.59;4774949;29;20157;-85
2022/06/07 11:02:59;;;;;;;0.50;0.50;;;;;;;27.47;17.24;99177.00;4783550;29;20065;-85
2022/06/07 11:11:23;;;;;;;0.50;0.50;;;;;;;28.52;17.03;99173.81;4815030;29;20081;-85
2022/06/07 11:13:59;;;;;;;0.50;0.50;;;;;;;28.07;17.31;99158.44;4816030;29;20205;-86
2022/06/07 11:16:52;;;;;;;0.50;0.50;;;;;;;28.40;16.58;99162.00;4800794;29;20165;-85
2022/06/07 11:19:19;;;;;;;0.50;0.50;;;;;;;28.06;16.39;99154.06;4810002;29;20069;-85
2022/06/07 11:21:49;;;;;;;0.50;0.50;;;;;;;27.83;16.75;99153.88;4801497;29;20404;-86
2022/06/07 11:24:19;;;;;;;0.50;0.50;;;;;;;28.59;16.41;99172.38;4800195;29;20081;-85
2022/06/07 11:26:50;;;;;;;0.50;0.50;;;;;;;28.90;15.67;99169.53;4799928;29;20066;-86
2022/06/07 11:29:23;;;;;;;0.50;0.50;;;;;;;28.92;15.73;99167.19;4787378;29;20131;-84
2022/06/07 11:31:51;;;;;;;0.50;0.50;;;;;;;28.90;16.07;99171.50;4801890;29;20058;-85
2022/06/07 11:34:33;;;;;;;0.50;0.50;;;;;;;29.44;16.25;99164.31;4787687;29;20510;-86
2022/06/07 11:37:15;;;;;;;0.50;0.50;;;;;;;30.36;15.80;99153.25;4803116;29;20054;-85
2022/06/07 11:39:57;;;;;;;0.40;0.40;;;;;;;30.21;16.38;99150.25;4807277;29;20063;-85
2022/06/07 11:42:28;;;;;;;0.40;0.40;;;;;;;30.32;14.99;99144.06;4801338;29;20096;-84
2022/06/07 11:45:26;;;;;;;0.50;0.50;;;;;;;30.69;14.86;99152.59;4801435;29;20149;-85
2022/06/07 11:48:02;;;;;;;0.50;0.50;;;;;;;31.47;14.74;99152.03;4822876;29;20485;-85
2022/06/07 11:50:46;;;;;;;0.40;0.40;;;;;;;31.46;13.79;99156.81;4840771;29;20100;-85
2022/06/07 11:53:26;;;;;;;0.40;0.40;;;;;;;31.47;14.22;99146.44;4826593;29;20050;-85
2022/06/07 11:56:12;;;;;;;0.40;0.40;;;;;;;31.69;14.21;99148.28;4825586;29;20050;-85
2022/06/07 11:59:03;;;;;;;0.40;0.40;;;;;;;31.53;14.34;99145.72;4828659;29;20509;-85
2022/06/07 12:01:40;;;;;;;0.43;0.43;;;;;;;30.74;14.70;99137.50;4819931;29;20053;-85
2022/06/07 12:04:49;;;;;;;0.40;0.40;;;;;;;31.56;14.49;99143.38;4831686;29;20050;-84
2022/06/07 12:07:35;;;;;;;0.40;0.40;;;;;;;32.28;13.50;99134.47;4839536;29;20574;-84
2022/06/07 12:10:17;;;;;;;0.40;0.40;;;;;;;32.68;13.25;99129.97;4839737;29;20681;-82
2022/06/07 12:12:58;;;;;;;0.40;0.40;;;;;;;33.20;13.34;99132.66;4838560;29;20574;-84
2022/06/07 12:15:45;;;;;;;0.40;0.40;;;;;;;33.61;13.85;99129.59;4841376;29;20206;-85
2022/06/07 12:18:38;;;;;;;0.40;0.40;;;;;;;33.23;12.69;99126.28;4831947;29;20059;-86
2022/06/07 12:21:14;;;;;;;0.40;0.40;;;;;;;32.25;13.14;99123.28;4826537;29;20115;-86
2022/06/07 12:23:44;;;;;;;0.40;0.40;;;;;;;32.15;13.51;99125.59;4826173;29;20054;-84
2022/06/07 12:26:25;;;;;;;0.40;0.40;;;;;;;32.34;13.14;99130.13;4823898;29;20537;-85
2022/06/07 12:28:59;;;;;;;0.40;0.40;;;;;;;31.70;12.36;99119.22;4839420;29;20057;-84
2022/06/07 12:31:28;;;;;;;;;;;;;;;30.83;13.46;99119.38;4834793;29;20054;-87
2022/06/07 12:33:58;;;;;;;0.40;0.40;;;;;;;30.84;13.32;99114.59;4841448;29;19928;-85
2022/06/07 12:36:30;;;;;;;0.40;0.40;;;;;;;31.97;12.58;99121.06;4817664;29;20525;-86